sensor_id;sensor_type;location;lat;lon;timestamp;P1;durP1;ratioP1;P2;durP2;ratioP2
13989;SDS011;7069;52.528;13.316;2023-03-31T00:01:27;4.97;;;1.90;;
13989;SDS011;7069;52.528;13.316;2023-03-31T00:03:54;2.20;;;2.03;;
13989;SDS011;7069;52.528;13.316;2023-03-31T00:06:28;7.10;;;2.73;;
13989;SDS011;7069;52.528;13.316;2023-03-31T00:08:55;5.63;;;2.30;;
13989;SDS011;7069;52.528;13.316;2023-03-31T00:11:27;7.20;;;2.23;;
13989;SDS011;7069;52.528;13.316;2023-03-31T00:13:54;3.97;;;2.10;;
13989;SDS011;7069;52.528;13.316;2023-03-31T00:16:21;6.97;;;2.57;;
13989;SDS011;7069;52.528;13.316;2023-03-31T00:18:49;6.93;;;2.60;;
13989;SDS011;7069;52.528;13.316;2023-03-31T00:21:16;7.13;;;2.73;;
13989;SDS011;7069;52.528;13.316;2023-03-31T00:23:50;3.70;;;1.77;;
13989;SDS011;7069;52.528;13.316;2023-03-31T00:26:16;5.00;;;2.53;;
13989;SDS011;7069;52.528;13.316;2023-03-31T00:28:43;3.77;;;1.93;;
13989;SDS011;7069;52.528;13.316;2023-03-31T00:31:09;2.87;;;1.80;;
13989;SDS011;7069;52.528;13.316;2023-03-31T00:33:36;5.47;;;2.23;;
13989;SDS011;7069;52.528;13.316;2023-03-31T00:36:04;3.87;;;1.60;;
13989;SDS011;7069;52.528;13.316;2023-03-31T00:38:30;8.33;;;1.80;;
13989;SDS011;7069;52.528;13.316;2023-03-31T00:40:57;4.53;;;1.50;;
13989;SDS011;7069;52.528;13.316;2023-03-31T00:43:28;5.63;;;2.00;;
13989;SDS011;7069;52.528;13.316;2023-03-31T00:45:57;5.50;;;1.90;;
13989;SDS011;7069;52.528;13.316;2023-03-31T00:48:26;3.57;;;2.10;;
13989;SDS011;7069;52.528;13.316;2023-03-31T00:50:53;5.10;;;1.97;;
13989;SDS011;7069;52.528;13.316;2023-03-31T00:53:23;4.30;;;2.00;;
13989;SDS011;7069;52.528;13.316;2023-03-31T00:55:52;3.07;;;2.00;;
13989;SDS011;7069;52.528;13.316;2023-03-31T00:58:20;2.43;;;1.53;;
13989;SDS011;7069;52.528;13.316;2023-03-31T01:00:47;2.10;;;1.70;;
13989;SDS011;7069;52.528;13.316;2023-03-31T01:03:15;5.60;;;2.03;;
13989;SDS011;7069;52.528;13.316;2023-03-31T01:05:43;4.37;;;1.83;;
13989;SDS011;7069;52.528;13.316;2023-03-31T01:08:11;5.83;;;1.83;;
13989;SDS011;7069;52.528;13.316;2023-03-31T01:10:40;2.47;;;1.97;;
13989;SDS011;7069;52.528;13.316;2023-03-31T01:13:08;4.73;;;1.67;;
13989;SDS011;7069;52.528;13.316;2023-03-31T01:15:35;3.67;;;1.70;;
13989;SDS011;7069;52.528;13.316;2023-03-31T01:18:02;3.23;;;1.10;;
13989;SDS011;7069;52.528;13.316;2023-03-31T01:20:31;4.90;;;2.00;;
13989;SDS011;7069;52.528;13.316;2023-03-31T01:23:12;6.33;;;1.87;;
13989;SDS011;7069;52.528;13.316;2023-03-31T01:25:55;3.43;;;1.33;;
13989;SDS011;7069;52.528;13.316;2023-03-31T01:28:30;2.73;;;1.70;;
13989;SDS011;7069;52.528;13.316;2023-03-31T01:34:00;2.17;;;1.27;;
13989;SDS011;7069;52.528;13.316;2023-03-31T01:36:46;3.13;;;1.93;;
13989;SDS011;7069;52.528;13.316;2023-03-31T01:42:19;2.40;;;1.57;;
13989;SDS011;7069;52.528;13.316;2023-03-31T01:44:52;3.43;;;1.43;;
13989;SDS011;7069;52.528;13.316;2023-03-31T01:47:24;4.73;;;1.50;;
13989;SDS011;7069;52.528;13.316;2023-03-31T01:49:54;6.13;;;1.93;;
13989;SDS011;7069;52.528;13.316;2023-03-31T01:52:23;2.17;;;1.50;;
13989;SDS011;7069;52.528;13.316;2023-03-31T01:54:52;3.73;;;1.57;;
13989;SDS011;7069;52.528;13.316;2023-03-31T01:57:22;1.77;;;1.63;;
13989;SDS011;7069;52.528;13.316;2023-03-31T01:59:51;3.13;;;1.33;;
13989;SDS011;7069;52.528;13.316;2023-03-31T02:02:20;5.13;;;1.93;;
13989;SDS011;7069;52.528;13.316;2023-03-31T02:04:51;1.40;;;1.20;;
13989;SDS011;7069;52.528;13.316;2023-03-31T02:07:19;2.43;;;1.20;;
13989;SDS011;7069;52.528;13.316;2023-03-31T02:09:48;3.97;;;1.50;;
13989;SDS011;7069;52.528;13.316;2023-03-31T02:12:15;2.77;;;1.40;;
13989;SDS011;7069;52.528;13.316;2023-03-31T02:14:44;3.00;;;1.60;;
13989;SDS011;7069;52.528;13.316;2023-03-31T02:17:13;2.00;;;1.33;;
13989;SDS011;7069;52.528;13.316;2023-03-31T02:19:42;6.60;;;1.30;;
13989;SDS011;7069;52.528;13.316;2023-03-31T02:22:09;4.80;;;1.63;;
13989;SDS011;7069;52.528;13.316;2023-03-31T02:24:37;1.40;;;1.20;;
13989;SDS011;7069;52.528;13.316;2023-03-31T02:27:06;2.67;;;1.43;;
13989;SDS011;7069;52.528;13.316;2023-03-31T02:29:41;4.47;;;1.30;;
13989;SDS011;7069;52.528;13.316;2023-03-31T02:32:10;3.67;;;1.57;;
13989;SDS011;7069;52.528;13.316;2023-03-31T02:34:38;3.13;;;2.53;;
13989;SDS011;7069;52.528;13.316;2023-03-31T02:37:04;4.67;;;1.30;;
13989;SDS011;7069;52.528;13.316;2023-03-31T02:39:33;3.80;;;1.50;;
13989;SDS011;7069;52.528;13.316;2023-03-31T02:42:00;5.17;;;1.83;;
13989;SDS011;7069;52.528;13.316;2023-03-31T02:44:31;5.87;;;1.60;;
13989;SDS011;7069;52.528;13.316;2023-03-31T02:46:57;3.17;;;1.70;;
13989;SDS011;7069;52.528;13.316;2023-03-31T02:49:25;4.17;;;1.40;;
13989;SDS011;7069;52.528;13.316;2023-03-31T02:51:56;5.57;;;1.83;;
13989;SDS011;7069;52.528;13.316;2023-03-31T02:54:40;1.90;;;1.30;;
13989;SDS011;7069;52.528;13.316;2023-03-31T02:57:16;3.00;;;1.27;;
13989;SDS011;7069;52.528;13.316;2023-03-31T02:59:47;2.17;;;1.53;;
13989;SDS011;7069;52.528;13.316;2023-03-31T03:02:16;3.50;;;1.47;;
13989;SDS011;7069;52.528;13.316;2023-03-31T03:04:59;3.33;;;1.70;;
13989;SDS011;7069;52.528;13.316;2023-03-31T03:07:30;3.37;;;1.47;;
13989;SDS011;7069;52.528;13.316;2023-03-31T03:10:00;2.57;;;1.33;;
13989;SDS011;7069;52.528;13.316;2023-03-31T03:12:29;1.40;;;1.10;;
13989;SDS011;7069;52.528;13.316;2023-03-31T03:14:59;5.70;;;1.70;;
13989;SDS011;7069;52.528;13.316;2023-03-31T03:17:27;4.17;;;1.53;;
13989;SDS011;7069;52.528;13.316;2023-03-31T03:19:56;1.53;;;0.90;;
13989;SDS011;7069;52.528;13.316;2023-03-31T03:22:25;1.70;;;1.13;;
13989;SDS011;7069;52.528;13.316;2023-03-31T03:24:52;6.33;;;2.40;;
13989;SDS011;7069;52.528;13.316;2023-03-31T03:27:18;3.83;;;1.40;;
13989;SDS011;7069;52.528;13.316;2023-03-31T03:29:46;3.53;;;1.10;;
13989;SDS011;7069;52.528;13.316;2023-03-31T03:32:13;1.90;;;1.20;;
13989;SDS011;7069;52.528;13.316;2023-03-31T03:34:39;1.77;;;1.40;;
13989;SDS011;7069;52.528;13.316;2023-03-31T03:37:06;2.73;;;1.03;;
13989;SDS011;7069;52.528;13.316;2023-03-31T03:39:34;2.20;;;1.30;;
13989;SDS011;7069;52.528;13.316;2023-03-31T03:42:00;1.70;;;1.03;;
13989;SDS011;7069;52.528;13.316;2023-03-31T03:44:27;1.33;;;1.10;;
13989;SDS011;7069;52.528;13.316;2023-03-31T03:46:54;5.03;;;1.30;;
13989;SDS011;7069;52.528;13.316;2023-03-31T03:49:20;1.60;;;1.50;;
13989;SDS011;7069;52.528;13.316;2023-03-31T03:51:47;2.30;;;1.13;;
13989;SDS011;7069;52.528;13.316;2023-03-31T03:54:13;2.43;;;1.33;;
13989;SDS011;7069;52.528;13.316;2023-03-31T03:56:41;2.83;;;1.30;;
13989;SDS011;7069;52.528;13.316;2023-03-31T03:59:09;3.43;;;1.47;;
13989;SDS011;7069;52.528;13.316;2023-03-31T04:01:36;2.40;;;1.10;;
13989;SDS011;7069;52.528;13.316;2023-03-31T04:04:02;4.27;;;1.43;;
13989;SDS011;7069;52.528;13.316;2023-03-31T04:06:29;1.37;;;1.27;;
13989;SDS011;7069;52.528;13.316;2023-03-31T04:08:56;2.73;;;1.43;;
13989;SDS011;7069;52.528;13.316;2023-03-31T04:11:22;3.37;;;1.30;;
13989;SDS011;7069;52.528;13.316;2023-03-31T04:13:51;1.67;;;1.07;;
13989;SDS011;7069;52.528;13.316;2023-03-31T04:16:18;1.70;;;1.33;;
13989;SDS011;7069;52.528;13.316;2023-03-31T04:18:44;2.77;;;1.37;;
13989;SDS011;7069;52.528;13.316;2023-03-31T04:21:13;3.57;;;1.37;;
13989;SDS011;7069;52.528;13.316;2023-03-31T04:23:47;3.27;;;1.57;;
13989;SDS011;7069;52.528;13.316;2023-03-31T04:26:14;3.40;;;1.27;;
13989;SDS011;7069;52.528;13.316;2023-03-31T04:28:41;2.47;;;1.30;;
13989;SDS011;7069;52.528;13.316;2023-03-31T04:31:12;2.57;;;1.37;;
13989;SDS011;7069;52.528;13.316;2023-03-31T04:33:40;1.93;;;1.13;;
13989;SDS011;7069;52.528;13.316;2023-03-31T04:36:10;3.20;;;1.63;;
13989;SDS011;7069;52.528;13.316;2023-03-31T04:38:41;4.67;;;1.50;;
13989;SDS011;7069;52.528;13.316;2023-03-31T04:41:11;3.27;;;1.33;;
13989;SDS011;7069;52.528;13.316;2023-03-31T04:43:37;1.70;;;1.60;;
13989;SDS011;7069;52.528;13.316;2023-03-31T04:46:04;1.83;;;1.40;;
13989;SDS011;7069;52.528;13.316;2023-03-31T04:48:32;2.70;;;1.30;;
13989;SDS011;7069;52.528;13.316;2023-03-31T04:50:58;1.47;;;1.10;;
13989;SDS011;7069;52.528;13.316;2023-03-31T04:53:25;2.57;;;1.27;;
13989;SDS011;7069;52.528;13.316;2023-03-31T04:55:51;1.80;;;1.30;;
13989;SDS011;7069;52.528;13.316;2023-03-31T04:58:18;4.23;;;1.97;;
13989;SDS011;7069;52.528;13.316;2023-03-31T05:00:44;5.80;;;1.97;;
13989;SDS011;7069;52.528;13.316;2023-03-31T05:03:11;3.27;;;1.50;;
13989;SDS011;7069;52.528;13.316;2023-03-31T05:05:39;5.63;;;1.50;;
13989;SDS011;7069;52.528;13.316;2023-03-31T05:08:05;6.57;;;2.40;;
13989;SDS011;7069;52.528;13.316;2023-03-31T05:10:32;3.37;;;1.43;;
13989;SDS011;7069;52.528;13.316;2023-03-31T05:12:59;3.60;;;1.40;;
13989;SDS011;7069;52.528;13.316;2023-03-31T05:15:25;3.17;;;1.50;;
13989;SDS011;7069;52.528;13.316;2023-03-31T05:17:52;2.33;;;1.40;;
13989;SDS011;7069;52.528;13.316;2023-03-31T05:20:19;4.67;;;1.63;;
13989;SDS011;7069;52.528;13.316;2023-03-31T05:22:47;4.10;;;1.60;;
13989;SDS011;7069;52.528;13.316;2023-03-31T05:25:13;5.83;;;2.57;;
13989;SDS011;7069;52.528;13.316;2023-03-31T05:27:42;6.17;;;2.27;;
13989;SDS011;7069;52.528;13.316;2023-03-31T05:30:09;7.27;;;2.60;;
13989;SDS011;7069;52.528;13.316;2023-03-31T05:32:36;3.23;;;1.93;;
13989;SDS011;7069;52.528;13.316;2023-03-31T05:35:03;4.47;;;2.07;;
13989;SDS011;7069;52.528;13.316;2023-03-31T05:37:29;4.43;;;1.70;;
13989;SDS011;7069;52.528;13.316;2023-03-31T05:39:57;3.03;;;1.63;;
13989;SDS011;7069;52.528;13.316;2023-03-31T05:42:24;6.73;;;3.07;;
13989;SDS011;7069;52.528;13.316;2023-03-31T05:44:51;4.67;;;1.63;;
13989;SDS011;7069;52.528;13.316;2023-03-31T05:47:17;7.23;;;2.17;;
13989;SDS011;7069;52.528;13.316;2023-03-31T05:49:44;4.80;;;1.93;;
13989;SDS011;7069;52.528;13.316;2023-03-31T05:52:10;3.50;;;1.87;;
13989;SDS011;7069;52.528;13.316;2023-03-31T05:54:37;4.10;;;1.30;;
13989;SDS011;7069;52.528;13.316;2023-03-31T05:57:06;2.37;;;1.60;;
13989;SDS011;7069;52.528;13.316;2023-03-31T05:59:33;8.57;;;2.37;;
13989;SDS011;7069;52.528;13.316;2023-03-31T06:02:00;2.20;;;1.70;;
13989;SDS011;7069;52.528;13.316;2023-03-31T06:04:27;3.93;;;1.63;;
13989;SDS011;7069;52.528;13.316;2023-03-31T06:06:53;4.80;;;1.90;;
13989;SDS011;7069;52.528;13.316;2023-03-31T06:09:22;4.40;;;2.07;;
13989;SDS011;7069;52.528;13.316;2023-03-31T06:11:49;3.30;;;1.80;;
13989;SDS011;7069;52.528;13.316;2023-03-31T06:14:17;2.90;;;1.63;;
13989;SDS011;7069;52.528;13.316;2023-03-31T06:16:43;4.33;;;1.70;;
13989;SDS011;7069;52.528;13.316;2023-03-31T06:19:11;4.33;;;1.70;;
13989;SDS011;7069;52.528;13.316;2023-03-31T06:21:38;5.60;;;1.83;;
13989;SDS011;7069;52.528;13.316;2023-03-31T06:24:05;3.90;;;1.67;;
13989;SDS011;7069;52.528;13.316;2023-03-31T06:26:31;3.07;;;1.60;;
13989;SDS011;7069;52.528;13.316;2023-03-31T06:28:58;5.20;;;1.90;;
13989;SDS011;7069;52.528;13.316;2023-03-31T06:31:26;4.67;;;1.63;;
13989;SDS011;7069;52.528;13.316;2023-03-31T06:33:53;8.50;;;2.57;;
13989;SDS011;7069;52.528;13.316;2023-03-31T06:36:20;3.80;;;1.80;;
13989;SDS011;7069;52.528;13.316;2023-03-31T06:38:47;10.63;;;2.53;;
13989;SDS011;7069;52.528;13.316;2023-03-31T06:41:14;2.47;;;1.77;;
13989;SDS011;7069;52.528;13.316;2023-03-31T06:43:41;6.93;;;2.13;;
13989;SDS011;7069;52.528;13.316;2023-03-31T06:46:07;8.53;;;1.97;;
13989;SDS011;7069;52.528;13.316;2023-03-31T06:48:35;10.13;;;2.37;;
13989;SDS011;7069;52.528;13.316;2023-03-31T06:51:02;5.47;;;2.40;;
13989;SDS011;7069;52.528;13.316;2023-03-31T06:53:30;5.37;;;1.77;;
13989;SDS011;7069;52.528;13.316;2023-03-31T06:55:57;6.23;;;2.90;;
13989;SDS011;7069;52.528;13.316;2023-03-31T06:58:23;6.67;;;2.40;;
13989;SDS011;7069;52.528;13.316;2023-03-31T07:00:50;5.13;;;2.20;;
13989;SDS011;7069;52.528;13.316;2023-03-31T07:03:17;3.87;;;1.67;;
13989;SDS011;7069;52.528;13.316;2023-03-31T07:05:48;5.10;;;1.90;;
13989;SDS011;7069;52.528;13.316;2023-03-31T07:08:15;3.43;;;1.93;;
13989;SDS011;7069;52.528;13.316;2023-03-31T07:10:42;3.73;;;1.70;;
13989;SDS011;7069;52.528;13.316;2023-03-31T07:13:11;3.40;;;1.88;;
13989;SDS011;7069;52.528;13.316;2023-03-31T07:15:38;3.03;;;2.07;;
13989;SDS011;7069;52.528;13.316;2023-03-31T07:18:04;4.38;;;2.25;;
13989;SDS011;7069;52.528;13.316;2023-03-31T07:20:31;3.23;;;1.73;;
13989;SDS011;7069;52.528;13.316;2023-03-31T07:23:01;3.80;;;1.80;;
13989;SDS011;7069;52.528;13.316;2023-03-31T07:25:28;9.38;;;2.30;;
13989;SDS011;7069;52.528;13.316;2023-03-31T07:27:55;6.47;;;1.98;;
13989;SDS011;7069;52.528;13.316;2023-03-31T07:30:21;2.22;;;1.52;;
13989;SDS011;7069;52.528;13.316;2023-03-31T07:32:49;4.65;;;1.77;;
13989;SDS011;7069;52.528;13.316;2023-03-31T07:35:15;3.72;;;1.60;;
13989;SDS011;7069;52.528;13.316;2023-03-31T07:37:43;3.95;;;3.13;;
13989;SDS011;7069;52.528;13.316;2023-03-31T07:40:12;6.28;;;2.03;;
13989;SDS011;7069;52.528;13.316;2023-03-31T07:42:39;3.90;;;1.70;;
13989;SDS011;7069;52.528;13.316;2023-03-31T07:45:07;5.38;;;1.98;;
13989;SDS011;7069;52.528;13.316;2023-03-31T07:47:34;4.22;;;1.50;;
13989;SDS011;7069;52.528;13.316;2023-03-31T07:50:02;3.42;;;1.58;;
13989;SDS011;7069;52.528;13.316;2023-03-31T07:52:29;7.90;;;1.83;;
13989;SDS011;7069;52.528;13.316;2023-03-31T07:54:55;3.55;;;1.70;;
13989;SDS011;7069;52.528;13.316;2023-03-31T07:57:23;3.53;;;1.95;;
13989;SDS011;7069;52.528;13.316;2023-03-31T07:59:50;1.63;;;1.27;;
13989;SDS011;7069;52.528;13.316;2023-03-31T08:02:17;3.55;;;1.65;;
13989;SDS011;7069;52.528;13.316;2023-03-31T08:04:44;7.60;;;3.03;;
13989;SDS011;7069;52.528;13.316;2023-03-31T08:07:10;3.22;;;1.45;;
13989;SDS011;7069;52.528;13.316;2023-03-31T08:09:38;3.58;;;1.40;;
13989;SDS011;7069;52.528;13.316;2023-03-31T08:12:05;5.43;;;2.05;;
13989;SDS011;7069;52.528;13.316;2023-03-31T08:14:33;8.38;;;2.17;;
13989;SDS011;7069;52.528;13.316;2023-03-31T08:16:59;6.55;;;1.77;;
13989;SDS011;7069;52.528;13.316;2023-03-31T08:19:26;9.15;;;2.53;;
13989;SDS011;7069;52.528;13.316;2023-03-31T08:21:52;7.53;;;2.40;;
13989;SDS011;7069;52.528;13.316;2023-03-31T08:24:19;3.88;;;1.75;;
13989;SDS011;7069;52.528;13.316;2023-03-31T08:26:46;3.35;;;1.63;;
13989;SDS011;7069;52.528;13.316;2023-03-31T08:29:13;3.75;;;1.60;;
13989;SDS011;7069;52.528;13.316;2023-03-31T08:31:41;3.92;;;1.40;;
13989;SDS011;7069;52.528;13.316;2023-03-31T08:34:07;3.33;;;1.50;;
13989;SDS011;7069;52.528;13.316;2023-03-31T08:36:34;4.57;;;2.17;;
13989;SDS011;7069;52.528;13.316;2023-03-31T08:39:00;4.40;;;1.67;;
13989;SDS011;7069;52.528;13.316;2023-03-31T08:44:13;6.28;;;1.77;;
13989;SDS011;7069;52.528;13.316;2023-03-31T08:46:42;3.20;;;1.65;;
13989;SDS011;7069;52.528;13.316;2023-03-31T08:49:10;3.22;;;1.38;;
13989;SDS011;7069;52.528;13.316;2023-03-31T08:51:39;4.90;;;2.17;;
13989;SDS011;7069;52.528;13.316;2023-03-31T08:54:06;4.53;;;1.77;;
13989;SDS011;7069;52.528;13.316;2023-03-31T08:56:37;2.92;;;1.65;;
13989;SDS011;7069;52.528;13.316;2023-03-31T08:59:06;5.50;;;2.00;;
13989;SDS011;7069;52.528;13.316;2023-03-31T09:01:43;8.05;;;2.97;;
13989;SDS011;7069;52.528;13.316;2023-03-31T09:04:17;4.68;;;2.38;;
13989;SDS011;7069;52.528;13.316;2023-03-31T09:06:47;4.03;;;1.92;;
13989;SDS011;7069;52.528;13.316;2023-03-31T09:09:17;5.68;;;1.73;;
13989;SDS011;7069;52.528;13.316;2023-03-31T09:11:49;7.35;;;1.90;;
13989;SDS011;7069;52.528;13.316;2023-03-31T09:17:05;4.07;;;1.60;;
13989;SDS011;7069;52.528;13.316;2023-03-31T09:19:36;4.13;;;1.77;;
13989;SDS011;7069;52.528;13.316;2023-03-31T09:22:04;8.55;;;2.35;;
13989;SDS011;7069;52.528;13.316;2023-03-31T09:24:32;3.97;;;1.60;;
13989;SDS011;7069;52.528;13.316;2023-03-31T09:27:00;11.75;;;5.78;;
13989;SDS011;7069;52.528;13.316;2023-03-31T09:29:27;5.97;;;1.85;;
13989;SDS011;7069;52.528;13.316;2023-03-31T09:31:55;3.53;;;1.77;;
13989;SDS011;7069;52.528;13.316;2023-03-31T09:34:28;4.20;;;1.67;;
13989;SDS011;7069;52.528;13.316;2023-03-31T09:36:55;4.95;;;1.85;;
13989;SDS011;7069;52.528;13.316;2023-03-31T09:39:22;8.35;;;2.00;;
13989;SDS011;7069;52.528;13.316;2023-03-31T09:41:48;3.70;;;1.33;;
13989;SDS011;7069;52.528;13.316;2023-03-31T09:44:23;5.85;;;1.92;;
13989;SDS011;7069;52.528;13.316;2023-03-31T09:46:51;2.70;;;1.35;;
13989;SDS011;7069;52.528;13.316;2023-03-31T09:49:19;2.97;;;1.48;;
13989;SDS011;7069;52.528;13.316;2023-03-31T09:51:50;4.32;;;1.70;;
13989;SDS011;7069;52.528;13.316;2023-03-31T09:54:22;3.53;;;1.52;;
13989;SDS011;7069;52.528;13.316;2023-03-31T09:56:50;3.67;;;1.60;;
13989;SDS011;7069;52.528;13.316;2023-03-31T09:59:18;6.22;;;2.20;;
13989;SDS011;7069;52.528;13.316;2023-03-31T10:01:46;6.30;;;2.53;;
13989;SDS011;7069;52.528;13.316;2023-03-31T10:04:16;4.57;;;1.67;;
13989;SDS011;7069;52.528;13.316;2023-03-31T10:06:44;5.95;;;2.42;;
13989;SDS011;7069;52.528;13.316;2023-03-31T10:09:12;3.20;;;1.90;;
13989;SDS011;7069;52.528;13.316;2023-03-31T10:11:50;5.78;;;2.13;;
13989;SDS011;7069;52.528;13.316;2023-03-31T10:14:16;4.82;;;1.95;;
13989;SDS011;7069;52.528;13.316;2023-03-31T10:16:43;3.92;;;2.25;;
13989;SDS011;7069;52.528;13.316;2023-03-31T10:19:12;2.13;;;1.63;;
13989;SDS011;7069;52.528;13.316;2023-03-31T10:21:39;3.42;;;1.60;;
13989;SDS011;7069;52.528;13.316;2023-03-31T10:24:09;6.38;;;2.85;;
13989;SDS011;7069;52.528;13.316;2023-03-31T10:26:37;7.28;;;2.08;;
13989;SDS011;7069;52.528;13.316;2023-03-31T10:29:09;4.60;;;2.45;;
13989;SDS011;7069;52.528;13.316;2023-03-31T10:31:38;4.70;;;2.50;;
13989;SDS011;7069;52.528;13.316;2023-03-31T10:34:04;4.25;;;2.17;;
13989;SDS011;7069;52.528;13.316;2023-03-31T10:36:31;4.95;;;1.85;;
13989;SDS011;7069;52.528;13.316;2023-03-31T10:38:59;2.80;;;1.75;;
13989;SDS011;7069;52.528;13.316;2023-03-31T10:41:30;11.95;;;7.05;;
13989;SDS011;7069;52.528;13.316;2023-03-31T10:43:59;3.83;;;1.40;;
13989;SDS011;7069;52.528;13.316;2023-03-31T10:46:38;1.58;;;1.30;;
13989;SDS011;7069;52.528;13.316;2023-03-31T10:49:10;5.18;;;1.67;;
13989;SDS011;7069;52.528;13.316;2023-03-31T10:51:46;1.90;;;1.73;;
13989;SDS011;7069;52.528;13.316;2023-03-31T10:54:13;2.63;;;1.48;;
13989;SDS011;7069;52.528;13.316;2023-03-31T10:56:40;2.28;;;1.30;;
13989;SDS011;7069;52.528;13.316;2023-03-31T10:59:16;5.72;;;1.80;;
13989;SDS011;7069;52.528;13.316;2023-03-31T11:01:47;2.47;;;1.45;;
13989;SDS011;7069;52.528;13.316;2023-03-31T11:04:22;2.83;;;2.13;;
13989;SDS011;7069;52.528;13.316;2023-03-31T11:06:55;3.55;;;1.52;;
13989;SDS011;7069;52.528;13.316;2023-03-31T11:09:29;5.70;;;1.80;;
13989;SDS011;7069;52.528;13.316;2023-03-31T11:12:02;3.00;;;1.35;;
13989;SDS011;7069;52.528;13.316;2023-03-31T11:14:37;9.48;;;4.25;;
13989;SDS011;7069;52.528;13.316;2023-03-31T11:17:08;3.92;;;1.40;;
13989;SDS011;7069;52.528;13.316;2023-03-31T11:19:39;1.73;;;0.93;;
13989;SDS011;7069;52.528;13.316;2023-03-31T11:22:08;3.58;;;1.33;;
13989;SDS011;7069;52.528;13.316;2023-03-31T11:24:47;3.10;;;1.20;;
13989;SDS011;7069;52.528;13.316;2023-03-31T11:27:22;7.80;;;1.52;;
13989;SDS011;7069;52.528;13.316;2023-03-31T11:29:52;3.83;;;1.13;;
13989;SDS011;7069;52.528;13.316;2023-03-31T11:32:30;5.43;;;1.30;;
13989;SDS011;7069;52.528;13.316;2023-03-31T11:35:04;2.47;;;1.10;;
13989;SDS011;7069;52.528;13.316;2023-03-31T11:37:42;3.85;;;1.52;;
13989;SDS011;7069;52.528;13.316;2023-03-31T11:40:20;2.85;;;1.20;;
13989;SDS011;7069;52.528;13.316;2023-03-31T11:42:52;3.28;;;1.45;;
13989;SDS011;7069;52.528;13.316;2023-03-31T11:45:24;6.78;;;1.60;;
13989;SDS011;7069;52.528;13.316;2023-03-31T11:47:53;6.18;;;2.53;;
13989;SDS011;7069;52.528;13.316;2023-03-31T11:50:21;2.28;;;1.50;;
13989;SDS011;7069;52.528;13.316;2023-03-31T11:52:51;7.18;;;1.55;;
13989;SDS011;7069;52.528;13.316;2023-03-31T11:55:20;4.20;;;1.63;;
13989;SDS011;7069;52.528;13.316;2023-03-31T11:57:49;2.10;;;1.63;;
13989;SDS011;7069;52.528;13.316;2023-03-31T12:00:20;3.25;;;1.20;;
13989;SDS011;7069;52.528;13.316;2023-03-31T12:02:50;5.88;;;2.13;;
13989;SDS011;7069;52.528;13.316;2023-03-31T12:05:18;3.97;;;2.05;;
13989;SDS011;7069;52.528;13.316;2023-03-31T12:07:47;2.40;;;1.65;;
13989;SDS011;7069;52.528;13.316;2023-03-31T12:10:17;4.00;;;2.55;;
13989;SDS011;7069;52.528;13.316;2023-03-31T12:12:45;5.03;;;2.85;;
13989;SDS011;7069;52.528;13.316;2023-03-31T12:15:16;8.80;;;3.63;;
13989;SDS011;7069;52.528;13.316;2023-03-31T12:17:44;4.32;;;2.97;;
13989;SDS011;7069;52.528;13.316;2023-03-31T12:20:24;4.65;;;4.10;;
13989;SDS011;7069;52.528;13.316;2023-03-31T12:22:51;4.03;;;2.92;;
13989;SDS011;7069;52.528;13.316;2023-03-31T12:25:20;5.60;;;3.65;;
13989;SDS011;7069;52.528;13.316;2023-03-31T12:27:50;5.13;;;3.55;;
13989;SDS011;7069;52.528;13.316;2023-03-31T12:30:19;4.22;;;3.08;;
13989;SDS011;7069;52.528;13.316;2023-03-31T12:32:48;11.20;;;4.68;;
13989;SDS011;7069;52.528;13.316;2023-03-31T12:35:20;3.53;;;3.33;;
13989;SDS011;7069;52.528;13.316;2023-03-31T12:38:07;4.57;;;4.05;;
13989;SDS011;7069;52.528;13.316;2023-03-31T12:40:39;4.35;;;2.67;;
13989;SDS011;7069;52.528;13.316;2023-03-31T12:43:15;7.28;;;2.85;;
13989;SDS011;7069;52.528;13.316;2023-03-31T12:45:46;3.05;;;2.72;;
13989;SDS011;7069;52.528;13.316;2023-03-31T12:48:18;4.78;;;2.50;;
13989;SDS011;7069;52.528;13.316;2023-03-31T12:50:53;6.63;;;2.10;;
13989;SDS011;7069;52.528;13.316;2023-03-31T12:53:23;4.65;;;1.88;;
13989;SDS011;7069;52.528;13.316;2023-03-31T12:55:55;3.47;;;2.30;;
13989;SDS011;7069;52.528;13.316;2023-03-31T12:58:39;4.65;;;2.80;;
13989;SDS011;7069;52.528;13.316;2023-03-31T13:01:07;3.40;;;3.10;;
13989;SDS011;7069;52.528;13.316;2023-03-31T13:03:35;6.60;;;2.90;;
13989;SDS011;7069;52.528;13.316;2023-03-31T13:06:03;5.32;;;3.50;;
13989;SDS011;7069;52.528;13.316;2023-03-31T13:08:49;7.60;;;3.70;;
13989;SDS011;7069;52.528;13.316;2023-03-31T13:11:16;7.93;;;4.30;;
13989;SDS011;7069;52.528;13.316;2023-03-31T13:13:44;4.83;;;4.13;;
13989;SDS011;7069;52.528;13.316;2023-03-31T13:16:10;6.87;;;5.07;;
13989;SDS011;7069;52.528;13.316;2023-03-31T13:18:48;8.23;;;5.37;;
13989;SDS011;7069;52.528;13.316;2023-03-31T13:21:16;5.90;;;5.37;;
13989;SDS011;7069;52.528;13.316;2023-03-31T13:23:44;11.87;;;5.70;;
13989;SDS011;7069;52.528;13.316;2023-03-31T13:34:15;9.30;;;6.17;;
13989;SDS011;7069;52.528;13.316;2023-03-31T13:36:51;8.73;;;6.00;;
13989;SDS011;7069;52.528;13.316;2023-03-31T13:42:12;8.00;;;5.73;;
13989;SDS011;7069;52.528;13.316;2023-03-31T13:44:47;6.53;;;5.70;;
13989;SDS011;7069;52.528;13.316;2023-03-31T13:47:45;6.63;;;6.07;;
13989;SDS011;7069;52.528;13.316;2023-03-31T13:53:15;7.83;;;5.53;;
13989;SDS011;7069;52.528;13.316;2023-03-31T13:55:53;7.40;;;5.73;;
13989;SDS011;7069;52.528;13.316;2023-03-31T13:58:23;4.43;;;3.67;;
13989;SDS011;7069;52.528;13.316;2023-03-31T14:01:01;3.00;;;2.53;;
13989;SDS011;7069;52.528;13.316;2023-03-31T14:03:36;5.33;;;3.77;;
13989;SDS011;7069;52.528;13.316;2023-03-31T14:06:04;4.33;;;2.43;;
13989;SDS011;7069;52.528;13.316;2023-03-31T14:08:35;3.30;;;2.23;;
13989;SDS011;7069;52.528;13.316;2023-03-31T14:11:14;2.40;;;2.00;;
13989;SDS011;7069;52.528;13.316;2023-03-31T14:13:41;2.23;;;1.57;;
13989;SDS011;7069;52.528;13.316;2023-03-31T14:16:08;1.70;;;1.60;;
13989;SDS011;7069;52.528;13.316;2023-03-31T14:18:36;2.37;;;1.60;;
13989;SDS011;7069;52.528;13.316;2023-03-31T14:21:06;1.90;;;1.43;;
13989;SDS011;7069;52.528;13.316;2023-03-31T14:23:42;4.03;;;1.37;;
13989;SDS011;7069;52.528;13.316;2023-03-31T14:26:11;1.20;;;1.10;;
13989;SDS011;7069;52.528;13.316;2023-03-31T14:28:47;2.03;;;1.20;;
13989;SDS011;7069;52.528;13.316;2023-03-31T14:31:18;1.10;;;1.00;;
13989;SDS011;7069;52.528;13.316;2023-03-31T14:33:50;2.80;;;1.37;;
13989;SDS011;7069;52.528;13.316;2023-03-31T14:36:21;0.83;;;0.83;;
13989;SDS011;7069;52.528;13.316;2023-03-31T14:38:53;1.40;;;1.20;;
13989;SDS011;7069;52.528;13.316;2023-03-31T14:41:25;2.50;;;0.90;;
13989;SDS011;7069;52.528;13.316;2023-03-31T14:43:55;1.53;;;1.37;;
13989;SDS011;7069;52.528;13.316;2023-03-31T14:46:22;4.40;;;1.30;;
13989;SDS011;7069;52.528;13.316;2023-03-31T14:48:49;1.80;;;1.10;;
13989;SDS011;7069;52.528;13.316;2023-03-31T14:51:16;1.07;;;0.70;;
13989;SDS011;7069;52.528;13.316;2023-03-31T14:53:43;2.83;;;1.10;;
13989;SDS011;7069;52.528;13.316;2023-03-31T14:56:11;1.10;;;1.00;;
13989;SDS011;7069;52.528;13.316;2023-03-31T14:58:38;1.00;;;1.00;;
13989;SDS011;7069;52.528;13.316;2023-03-31T15:01:07;1.30;;;1.20;;
13989;SDS011;7069;52.528;13.316;2023-03-31T15:03:35;2.30;;;1.17;;
13989;SDS011;7069;52.528;13.316;2023-03-31T15:06:02;3.43;;;1.23;;
13989;SDS011;7069;52.528;13.316;2023-03-31T15:08:30;1.60;;;1.23;;
13989;SDS011;7069;52.528;13.316;2023-03-31T15:10:57;1.90;;;0.87;;
13989;SDS011;7069;52.528;13.316;2023-03-31T15:13:27;1.13;;;1.03;;
13989;SDS011;7069;52.528;13.316;2023-03-31T15:15:55;1.50;;;1.40;;
13989;SDS011;7069;52.528;13.316;2023-03-31T15:18:24;2.63;;;1.00;;
13989;SDS011;7069;52.528;13.316;2023-03-31T15:20:51;1.97;;;1.40;;
13989;SDS011;7069;52.528;13.316;2023-03-31T15:23:18;1.30;;;0.93;;
13989;SDS011;7069;52.528;13.316;2023-03-31T15:25:49;1.77;;;1.03;;